Time;durP1;ratioP1;P1;durP2;ratioP2;P2;SDS_P1;SDS_P2;PMS_P1;PMS_P2;Temp;Humidity;BMP_temperature;BMP_pressure;BME280_temperature;BME280_humidity;BME280_pressure;Samples;Min_cycle;Max_cycle;Signal;HPM_P1;HPM_P2
2021/01/28 00:00:29;;;;;;;28.63;13.57;;;6.80;94.00;;;;;;2086185;28;20025;-80
2021/01/28 00:01:30;;;;;;;24.52;12.93;;;6.80;94.00;;;;;;2077135;28;20033;-81
2021/01/28 00:02:31;;;;;;;27.23;13.73;;;6.80;94.00;;;;;;2083851;28;20399;-81
2021/01/28 00:03:31;;;;;;;26.10;13.35;;;6.80;94.00;;;;;;2076126;28;20455;-81
2021/01/28 00:04:32;;;;;;;24.90;13.07;;;6.80;94.00;;;;;;2074505;28;20115;-80
2021/01/28 00:05:35;;;;;;;27.27;12.95;;;6.80;94.00;;;;;;2090977;28;20027;-81
2021/01/28 00:06:35;;;;;;;26.58;12.27;;;6.80;94.00;;;;;;2090897;28;20512;-81
2021/01/28 00:07:36;;;;;;;23.92;12.75;;;6.80;94.00;;;;;;2076761;28;20026;-81
2021/01/28 00:08:38;;;;;;;25.80;12.77;;;6.80;94.00;;;;;;2070691;28;20046;-80
2021/01/28 00:09:38;;;;;;;23.92;12.50;;;6.80;94.00;;;;;;2067576;28;20480;-81
2021/01/28 00:10:39;;;;;;;28.02;13.38;;;6.80;94.00;;;;;;2075682;28;20036;-81
2021/01/28 00:11:40;;;;;;;25.52;12.55;;;6.80;94.00;;;;;;2083186;28;20045;-81
2021/01/28 00:12:41;;;;;;;26.58;13.02;;;6.80;93.90;;;;;;2076824;28;20050;-81
2021/01/28 00:13:41;;;;;;;27.08;12.50;;;6.80;94.00;;;;;;2076472;28;21018;-81
2021/01/28 00:14:42;;;;;;;29.55;13.73;;;6.80;94.00;;;;;;2075829;28;20033;-81
2021/01/28 00:15:43;;;;;;;26.77;12.77;;;6.80;93.90;;;;;;2067179;28;20029;-81
2021/01/28 00:16:43;;;;;;;24.38;12.82;;;6.80;94.00;;;;;;2066185;28;20033;-81
2021/01/28 00:17:44;;;;;;;29.70;13.30;;;6.80;94.00;;;;;;2082753;28;20124;-80
2021/01/28 00:18:45;;;;;;;26.15;12.60;;;6.80;94.00;;;;;;2084390;28;20036;-81
2021/01/28 00:19:46;;;;;;;25.08;12.50;;;6.80;94.00;;;;;;2076146;28;20014;-80
2021/01/28 00:20:48;;;;;;;24.70;12.02;;;6.80;94.00;;;;;;2083324;28;20040;-81
2021/01/28 00:21:49;;;;;;;23.60;12.45;;;6.80;94.00;;;;;;2081827;28;20510;-81
2021/01/28 00:22:49;;;;;;;26.75;12.57;;;6.80;94.00;;;;;;2084233;28;20033;-81
2021/01/28 00:23:50;;;;;;;24.48;12.70;;;6.80;94.00;;;;;;2087776;28;20028;-81
2021/01/28 00:24:51;;;;;;;24.83;12.40;;;6.80;94.00;;;;;;2075940;28;20128;-81
2021/01/28 00:25:54;;;;;;;26.25;13.55;;;6.80;94.00;;;;;;2067233;28;20026;-81
2021/01/28 00:26:55;;;;;;;28.30;13.50;;;6.80;94.00;;;;;;2086277;28;20079;-81
2021/01/28 00:27:56;;;;;;;25.75;13.10;;;6.80;93.90;;;;;;2084363;28;20107;-81
2021/01/28 00:28:56;;;;;;;26.58;12.88;;;6.80;93.90;;;;;;2070272;28;20467;-81
2021/01/28 00:29:57;;;;;;;26.70;12.98;;;6.80;93.90;;;;;;2069561;28;20045;-81
2021/01/28 00:30:57;;;;;;;29.85;13.75;;;6.80;93.90;;;;;;2077611;28;20061;-81
2021/01/28 00:31:58;;;;;;;27.60;13.43;;;6.80;93.90;;;;;;2082540;28;20036;-81
2021/01/28 00:32:59;;;;;;;25.05;12.63;;;6.80;93.90;;;;;;2075891;28;20216;-81
2021/01/28 00:34:00;;;;;;;25.38;13.15;;;6.80;93.90;;;;;;2075668;28;20100;-81
2021/01/28 00:35:00;;;;;;;27.65;12.73;;;6.80;93.90;;;;;;2076423;28;20037;-81
2021/01/28 00:36:04;;;;;;;27.23;12.32;;;6.80;93.90;;;;;;2074137;28;20108;-81
2021/01/28 00:37:04;;;;;;;26.58;13.40;;;6.80;93.90;;;;;;2073127;28;20026;-81
2021/01/28 00:38:07;;;;;;;28.30;13.02;;;6.80;93.90;;;;;;2084009;28;20048;-81
2021/01/28 00:39:08;;;;;;;29.35;13.73;;;6.80;93.90;;;;;;2083847;28;20098;-80
2021/01/28 00:40:09;;;;;;;28.52;13.57;;;6.80;93.90;;;;;;2077321;28;20033;-81
2021/01/28 00:41:10;;;;;;;29.98;14.07;;;6.80;93.90;;;;;;2076918;28;20033;-81
2021/01/28 00:42:11;;;;;;;25.80;13.60;;;6.80;93.90;;;;;;2076028;28;20033;-80
2021/01/28 00:43:12;;;;;;;27.67;13.70;;;6.80;93.90;;;;;;2075501;28;20038;-81
2021/01/28 00:44:12;;;;;;;29.35;13.25;;;6.80;93.90;;;;;;2074067;28;20040;-81
2021/01/28 00:45:14;;;;;;;24.08;12.30;;;6.80;93.90;;;;;;2062711;28;20432;-81
2021/01/28 00:46:15;;;;;;;25.73;13.35;;;6.80;93.90;;;;;;2057876;28;20490;-81
2021/01/28 00:47:16;;;;;;;27.00;12.63;;;6.80;93.90;;;;;;2061257;28;20045;-81
2021/01/28 00:48:17;;;;;;;30.98;14.02;;;6.80;93.90;;;;;;2074647;28;20507;-81
2021/01/28 00:49:18;;;;;;;25.23;12.50;;;6.80;93.90;;;;;;2074799;28;20033;-81
2021/01/28 00:50:20;;;;;;;29.10;12.90;;;6.80;93.90;;;;;;2074811;28;20426;-80
2021/01/28 00:51:21;;;;;;;26.08;12.65;;;6.80;93.90;;;;;;2068209;28;20093;-80
2021/01/28 00:52:22;;;;;;;24.83;12.80;;;6.80;93.90;;;;;;2076250;28;20041;-81
2021/01/28 00:53:23;;;;;;;28.02;13.80;;;6.80;93.90;;;;;;2091334;28;20386;-80
2021/01/28 00:54:23;;;;;;;27.83;12.98;;;6.80;93.90;;;;;;2083754;28;20487;-80
2021/01/28 00:55:24;;;;;;;23.35;12.43;;;6.80;93.90;;;;;;2084648;28;20028;-80
2021/01/28 00:56:25;;;;;;;29.55;13.23;;;6.80;93.90;;;;;;2090308;28;20041;-81
2021/01/28 00:57:25;;;;;;;25.08;12.77;;;6.80;93.90;;;;;;2074340;28;20101;-81
2021/01/28 00:58:26;;;;;;;31.48;13.00;;;6.80;93.90;;;;;;2082365;28;20460;-80
2021/01/28 00:59:27;;;;;;;29.38;12.40;;;6.80;93.90;;;;;;2076248;28;20040;-81
2021/01/28 01:00:40;;;;;;;29.08;13.30;;;6.80;93.90;;;;;;2068310;28;20032;-80
2021/01/28 01:01:41;;;;;;;26.23;12.40;;;6.80;93.90;;;;;;2069731;28;20117;-81
2021/01/28 01:02:42;;;;;;;30.77;13.10;;;6.80;94.20;;;;;;2074802;28;20045;-81
2021/01/28 01:03:43;;;;;;;28.00;12.52;;;6.80;94.20;;;;;;2070212;28;20079;-81
2021/01/28 01:04:43;;;;;;;27.63;13.35;;;6.80;93.90;;;;;;2068925;28;20038;-81
2021/01/28 01:05:45;;;;;;;28.27;12.88;;;6.80;93.90;;;;;;2075222;28;20112;-81
2021/01/28 01:06:46;;;;;;;29.25;13.13;;;6.80;93.90;;;;;;2074558;28;20037;-81
2021/01/28 01:07:47;;;;;;;28.83;12.48;;;6.80;93.90;;;;;;2075586;28;20032;-81
2021/01/28 01:08:48;;;;;;;27.65;12.82;;;6.80;93.90;;;;;;2076453;28;20033;-81
2021/01/28 01:09:48;;;;;;;32.60;13.10;;;6.80;93.90;;;;;;2075787;28;20080;-81
2021/01/28 01:10:52;;;;;;;28.45;12.88;;;6.80;93.90;;;;;;2058404;28;20749;-81
2021/01/28 01:11:55;;;;;;;29.13;12.93;;;6.80;93.90;;;;;;2059662;28;20038;-81
2021/01/28 01:12:55;;;;;;;29.50;13.80;;;6.80;93.90;;;;;;2075416;28;20060;-81
2021/01/28 01:13:56;;;;;;;30.23;13.60;;;6.80;94.20;;;;;;2075965;28;20034;-81
2021/01/28 01:14:57;;;;;;;28.60;13.93;;;6.80;93.90;;;;;;2083512;28;20140;-80
2021/01/28 01:15:58;;;;;;;26.92;13.38;;;6.80;93.90;;;;;;2090979;28;20580;-81
2021/01/28 01:16:59;;;;;;;27.90;13.25;;;6.80;94.20;;;;;;2074490;28;20179;-80
2021/01/28 01:18:00;;;;;;;29.42;13.02;;;6.80;93.90;;;;;;2074590;28;20033;-80
2021/01/28 01:19:00;;;;;;;22.95;11.52;;;6.80;94.00;;;;;;2067466;28;20502;-81
2021/01/28 01:20:01;;;;;;;26.85;12.63;;;6.80;93.90;;;;;;2060221;28;20056;-81
2021/01/28 01:21:03;;;;;;;29.15;12.80;;;6.80;93.90;;;;;;2067241;28;20034;-81
2021/01/28 01:22:04;;;;;;;26.27;11.65;;;6.80;93.90;;;;;;2076069;28;20182;-81
2021/01/28 01:23:05;;;;;;;30.60;12.90;;;6.80;93.90;;;;;;2075825;28;20465;-81
2021/01/28 01:24:06;;;;;;;26.05;12.35;;;6.80;93.90;;;;;;2084461;28;20033;-81
2021/01/28 01:25:07;;;;;;;28.52;11.82;;;6.80;93.90;;;;;;2075352;28;20037;-81
2021/01/28 01:26:08;;;;;;;29.25;12.05;;;6.80;93.90;;;;;;2074414;28;20064;-81
2021/01/28 01:27:09;;;;;;;24.63;11.77;;;6.80;93.90;;;;;;2075493;28;20185;-82
2021/01/28 01:28:09;;;;;;;28.55;12.43;;;6.80;93.90;;;;;;2067955;28;20034;-81
2021/01/28 01:29:10;;;;;;;30.45;12.18;;;6.80;94.20;;;;;;2067588;28;20063;-81
2021/01/28 01:30:12;;;;;;;25.05;11.77;;;6.80;93.90;;;;;;2075026;28;20048;-81
2021/01/28 01:31:13;;;;;;;26.27;12.70;;;6.80;93.90;;;;;;2074282;28;20041;-81
2021/01/28 01:32:14;;;;;;;25.00;11.90;;;6.80;93.90;;;;;;2075273;28;20553;-81
2021/01/28 01:33:14;;;;;;;27.88;12.32;;;6.80;93.90;;;;;;2067705;28;20061;-80
2021/01/28 01:34:16;;;;;;;30.00;12.02;;;6.80;93.90;;;;;;2070226;28;20091;-81
2021/01/28 01:35:19;;;;;;;27.55;12.05;;;6.80;93.90;;;;;;2074904;28;20041;-82
2021/01/28 01:36:20;;;;;;;24.95;11.55;;;6.80;93.90;;;;;;2069130;28;20045;-81
2021/01/28 01:37:20;;;;;;;26.58;12.38;;;6.80;93.90;;;;;;2059940;28;20029;-81
2021/01/28 01:38:21;;;;;;;29.73;12.38;;;6.80;94.00;;;;;;2079219;28;20124;-82
2021/01/28 01:39:22;;;;;;;26.23;12.13;;;6.80;93.90;;;;;;2079576;28;20022;-81
2021/01/28 01:40:38;;;;;;;28.08;11.50;;;6.80;93.90;;;;;;2068182;28;20127;-81
2021/01/28 01:41:39;;;;;;;28.50;11.90;;;6.80;93.90;;;;;;2069197;28;20492;-81
2021/01/28 01:42:43;;;;;;;30.40;12.48;;;6.80;93.90;;;;;;2065726;28;20034;-81
2021/01/28 01:43:44;;;;;;;29.55;13.00;;;6.80;93.90;;;;;;2075655;28;20021;-80
2021/01/28 01:44:45;;;;;;;30.65;11.82;;;6.80;93.90;;;;;;2076014;28;20041;-81
2021/01/28 01:45:49;;;;;;;29.42;12.15;;;6.80;93.90;;;;;;2072107;28;20129;-81
2021/01/28 01:46:58;;;;;;;28.08;12.60;;;6.80;93.90;;;;;;2073930;28;20124;-81
2021/01/28 01:48:10;;;;;;;26.17;11.95;;;6.80;93.90;;;;;;2075144;28;20026;-81
2021/01/28 01:49:24;;;;;;;32.63;11.80;;;6.80;93.90;;;;;;2075207;28;20022;-82
2021/01/28 01:50:30;;;;;;;27.65;11.32;;;6.80;93.90;;;;;;2074997;28;20054;-81
2021/01/28 01:51:35;;;;;;;26.48;11.55;;;6.80;93.90;;;;;;2084161;28;20033;-81
2021/01/28 01:52:36;;;;;;;26.52;10.90;;;6.80;93.90;;;;;;2083627;28;20025;-81
2021/01/28 01:53:46;;;;;;;25.38;12.05;;;6.80;93.90;;;;;;2083241;28;20439;-81
2021/01/28 01:54:48;;;;;;;26.00;11.45;;;6.80;93.90;;;;;;2084992;28;20076;-81
2021/01/28 01:55:55;;;;;;;24.75;11.60;;;6.80;93.90;;;;;;2082465;28;20030;-81
2021/01/28 01:57:01;;;;;;;26.60;11.52;;;6.80;93.90;;;;;;2082104;28;20079;-81
2021/01/28 01:58:04;;;;;;;28.23;11.75;;;6.80;93.90;;;;;;2075747;28;20484;-80
2021/01/28 01:59:08;;;;;;;30.60;12.13;;;6.80;93.90;;;;;;2075824;28;20021;-81
2021/01/28 02:00:12;;;;;;;27.70;11.88;;;6.80;93.90;;;;;;2075308;28;20056;-81
2021/01/28 02:01:14;;;;;;;30.38;12.25;;;6.80;93.90;;;;;;2078216;28;20033;-81
2021/01/28 02:02:19;;;;;;;29.70;11.93;;;6.80;93.90;;;;;;2092219;28;20033;-80
2021/01/28 02:03:21;;;;;;;29.02;11.80;;;6.80;93.90;;;;;;2087274;28;20082;-81
2021/01/28 02:04:23;;;;;;;28.05;11.73;;;6.80;93.90;;;;;;2076621;28;20038;-81
2021/01/28 02:05:29;;;;;;;25.63;10.55;;;6.80;93.90;;;;;;2069137;28;20100;-81
2021/01/28 02:06:43;;;;;;;27.48;11.50;;;6.80;93.90;;;;;;2087661;28;20040;-81
2021/01/28 02:07:43;;;;;;;27.75;12.70;;;6.80;93.90;;;;;;2082557;28;20024;-82
2021/01/28 02:08:49;;;;;;;27.25;11.25;;;6.80;93.90;;;;;;2074919;28;20112;-81
2021/01/28 02:09:50;;;;;;;27.08;11.05;;;6.80;93.90;;;;;;2075207;28;20103;-82
2021/01/28 02:10:51;;;;;;;28.35;11.68;;;6.80;93.90;;;;;;2076115;28;20060;-81
2021/01/28 02:11:51;;;;;;;29.50;12.20;;;6.80;93.90;;;;;;2076566;28;20026;-81
2021/01/28 02:12:55;;;;;;;25.45;11.85;;;6.80;93.90;;;;;;2082247;28;20033;-80
2021/01/28 02:13:58;;;;;;;27.77;12.38;;;6.80;93.90;;;;;;2082191;28;20031;-81
2021/01/28 02:14:59;;;;;;;25.42;11.00;;;6.80;93.90;;;;;;2074020;28;20021;-81
2021/01/28 02:16:00;;;;;;;24.75;11.15;;;6.80;93.90;;;;;;2068259;28;20030;-81
2021/01/28 02:17:03;;;;;;;24.55;11.95;;;6.80;93.90;;;;;;2075990;28;20181;-81
2021/01/28 02:18:04;;;;;;;26.15;11.10;;;6.80;93.90;;;;;;2073612;28;20491;-81
2021/01/28 02:19:47;;;;;;;27.20;10.95;;;6.80;93.90;;;;;;2082664;28;20033;-81
2021/01/28 02:21:29;;;;;;;27.73;11.55;;;6.80;93.90;;;;;;2053749;28;20043;-81
2021/01/28 02:23:03;;;;;;;23.27;10.10;;;6.80;93.90;;;;;;2079583;28;20470;-81
2021/01/28 02:24:34;;;;;;;22.33;10.02;;;6.80;93.90;;;;;;2082058;28;20026;-81
2021/01/28 02:25:37;;;;;;;23.67;10.35;;;6.80;93.80;;;;;;2080993;28;20040;-81
2021/01/28 02:26:40;;;;;;;24.02;10.60;;;6.80;93.80;;;;;;2082080;28;20035;-81
2021/01/28 02:27:43;;;;;;;23.88;10.13;;;6.80;93.80;;;;;;2078156;28;20075;-80
2021/01/28 02:28:44;;;;;;;24.83;10.52;;;6.80;93.80;;;;;;2075291;28;20022;-81
2021/01/28 02:29:46;;;;;;;28.13;11.18;;;6.80;93.80;;;;;;2068580;28;20034;-81
2021/01/28 02:30:50;;;;;;;25.63;10.85;;;6.80;94.10;;;;;;2067884;28;20084;-80
2021/01/28 02:31:54;;;;;;;26.80;11.27;;;6.80;93.80;;;;;;2081249;28;20040;-81
2021/01/28 02:32:55;;;;;;;24.55;10.40;;;6.80;93.80;;;;;;2081099;28;20048;-81
2021/01/28 02:33:59;;;;;;;27.85;11.95;;;6.80;93.80;;;;;;2074902;28;20033;-81
2021/01/28 02:34:59;;;;;;;27.20;11.45;;;6.80;93.80;;;;;;2067517;28;20030;-81
2021/01/28 02:36:00;;;;;;;27.20;11.50;;;6.80;93.80;;;;;;2067646;28;20034;-81
2021/01/28 02:37:20;;;;;;;31.02;11.43;;;6.80;93.80;;;;;;2059582;28;20117;-81
2021/01/28 02:38:20;;;;;;;25.45;11.05;;;6.80;93.90;;;;;;2075458;28;20083;-80
2021/01/28 02:39:28;;;;;;;27.92;11.00;;;6.80;93.80;;;;;;2074459;28;20380;-80
2021/01/28 02:40:30;;;;;;;24.45;10.77;;;6.80;93.90;;;;;;2075273;28;20040;-81
2021/01/28 02:41:31;;;;;;;28.17;11.32;;;6.80;93.90;;;;;;2075400;28;20079;-82
2021/01/28 02:42:33;;;;;;;25.63;10.82;;;6.80;93.80;;;;;;2083604;28;20033;-81
2021/01/28 02:43:34;;;;;;;29.45;12.05;;;6.80;93.90;;;;;;2082807;28;20036;-81
2021/01/28 02:44:35;;;;;;;28.67;11.75;;;6.80;93.80;;;;;;2074681;28;20099;-81
2021/01/28 02:45:36;;;;;;;26.88;10.50;;;6.80;93.80;;;;;;2075010;28;20115;-81
2021/01/28 02:46:37;;;;;;;27.48;11.52;;;6.80;93.80;;;;;;2075940;28;20479;-81
2021/01/28 02:47:37;;;;;;;29.65;12.35;;;6.80;93.90;;;;;;2083325;28;20148;-82
2021/01/28 02:48:38;;;;;;;25.85;11.05;;;6.80;93.90;;;;;;2081842;28;20547;-81
2021/01/28 02:49:39;;;;;;;26.00;11.48;;;6.80;93.90;;;;;;2074311;28;20072;-82
2021/01/28 02:50:40;;;;;;;27.88;11.70;;;6.80;93.90;;;;;;2074654;28;20025;-81
2021/01/28 02:51:41;;;;;;;26.27;11.75;;;6.80;93.90;;;;;;2066468;28;20042;-81
2021/01/28 02:52:41;;;;;;;22.85;10.80;;;6.80;93.90;;;;;;2074351;28;20160;-81
2021/01/28 02:53:54;;;;;;;29.95;11.88;;;6.90;93.90;;;;;;2088270;28;20032;-81
2021/01/28 02:54:54;;;;;;;26.70;11.80;;;6.80;93.90;;;;;;2086845;28;20029;-81
2021/01/28 02:55:55;;;;;;;26.73;11.20;;;6.90;93.90;;;;;;2076381;28;20978;-81
2021/01/28 02:56:56;;;;;;;30.63;11.95;;;6.80;93.90;;;;;;2068860;28;20114;-81
2021/01/28 02:57:57;;;;;;;27.17;11.07;;;6.90;93.90;;;;;;2074541;28;20029;-81
2021/01/28 02:58:57;;;;;;;26.33;11.18;;;6.90;93.90;;;;;;2083546;28;20037;-82
2021/01/28 02:59:58;;;;;;;26.33;10.98;;;6.90;93.90;;;;;;2082439;28;20590;-81
2021/01/28 03:00:59;;;;;;;25.67;11.57;;;6.90;93.90;;;;;;2082784;28;20561;-81
2021/01/28 03:02:05;;;;;;;27.27;10.70;;;6.80;93.80;;;;;;2067812;28;20415;-81
2021/01/28 03:03:10;;;;;;;25.83;10.88;;;6.90;93.90;;;;;;2060830;28;20031;-81
2021/01/28 03:04:11;;;;;;;25.35;11.05;;;6.90;93.90;;;;;;2074167;28;20017;-82
2021/01/28 03:05:12;;;;;;;27.25;10.63;;;6.80;93.80;;;;;;2073190;28;20160;-81
2021/01/28 03:06:13;;;;;;;29.83;12.25;;;6.90;93.90;;;;;;2078432;28;20072;-81
2021/01/28 03:07:15;;;;;;;28.65;11.27;;;6.90;94.10;;;;;;2082040;28;20040;-81
2021/01/28 03:08:17;;;;;;;27.98;11.18;;;6.90;93.90;;;;;;2067102;28;20025;-81
2021/01/28 03:09:18;;;;;;;27.52;11.50;;;6.90;93.90;;;;;;2074665;28;20559;-81
2021/01/28 03:10:21;;;;;;;25.52;10.13;;;6.90;93.90;;;;;;2074393;28;20036;-81
2021/01/28 03:11:22;;;;;;;25.65;11.50;;;6.90;93.90;;;;;;2074664;28;20120;-82
2021/01/28 03:12:22;;;;;;;29.25;11.68;;;6.90;93.90;;;;;;2067065;28;20038;-81
2021/01/28 03:13:24;;;;;;;27.92;11.30;;;6.90;93.90;;;;;;2067899;28;20034;-82
2021/01/28 03:14:25;;;;;;;26.58;11.35;;;6.90;93.90;;;;;;2081834;28;20053;-82
2021/01/28 03:15:28;;;;;;;28.65;11.48;;;6.90;93.90;;;;;;2075480;28;20049;-79
2021/01/28 03:16:29;;;;;;;27.40;10.65;;;6.90;93.90;;;;;;2059772;28;20045;-81
2021/01/28 03:17:29;;;;;;;25.27;10.73;;;6.90;93.90;;;;;;2073340;28;20168;-81
2021/01/28 03:18:30;;;;;;;33.10;10.88;;;6.90;93.90;;;;;;2074570;28;20510;-81
2021/01/28 03:19:31;;;;;;;27.83;10.25;;;6.80;93.80;;;;;;2066426;28;20041;-81
2021/01/28 03:20:32;;;;;;;33.30;11.02;;;6.90;94.10;;;;;;2071800;28;20124;-81
2021/01/28 03:21:33;;;;;;;28.35;10.60;;;6.90;93.90;;;;;;2065143;28;20037;-81
2021/01/28 03:22:33;;;;;;;25.45;10.52;;;6.90;93.90;;;;;;2067005;28;20034;-81
2021/01/28 03:23:34;;;;;;;38.80;11.68;;;6.90;93.80;;;;;;2076021;28;20513;-80
2021/01/28 03:24:35;;;;;;;27.40;10.55;;;6.90;93.80;;;;;;2082124;28;20031;-81
2021/01/28 03:25:36;;;;;;;25.55;11.23;;;6.90;93.80;;;;;;2089175;28;20051;-81
2021/01/28 03:26:37;;;;;;;23.75;10.95;;;6.90;93.80;;;;;;2090242;28;20021;-81
2021/01/28 03:27:39;;;;;;;30.35;11.45;;;6.90;93.90;;;;;;2075028;28;20017;-80
2021/01/28 03:28:40;;;;;;;27.60;11.20;;;6.90;93.90;;;;;;2067845;28;20311;-81
2021/01/28 03:29:40;;;;;;;34.13;10.73;;;6.90;93.90;;;;;;2074500;28;20041;-81
2021/01/28 03:30:46;;;;;;;28.45;11.27;;;6.90;93.90;;;;;;2072100;28;20404;-81
2021/01/28 03:31:46;;;;;;;36.72;11.40;;;6.90;93.90;;;;;;2071705;28;20029;-81
2021/01/28 03:32:47;;;;;;;29.20;10.88;;;6.90;93.90;;;;;;2067141;28;20834;-80
2021/01/28 03:33:48;;;;;;;31.25;10.65;;;6.90;93.80;;;;;;2066921;28;20061;-81
2021/01/28 03:34:48;;;;;;;32.88;11.10;;;6.90;93.80;;;;;;2074700;28;20013;-81
2021/01/28 03:35:50;;;;;;;29.25;11.77;;;6.80;93.80;;;;;;2076487;28;20553;-80
2021/01/28 03:36:51;;;;;;;33.25;11.90;;;6.80;93.80;;;;;;2075338;28;20020;-80
2021/01/28 03:37:52;;;;;;;32.90;11.82;;;6.80;93.90;;;;;;2075482;28;20033;-81
2021/01/28 03:38:53;;;;;;;36.60;11.30;;;6.80;93.80;;;;;;2075347;28;20449;-80
2021/01/28 03:39:54;;;;;;;29.45;10.88;;;6.80;93.90;;;;;;2067716;28;20073;-79
2021/01/28 03:40:54;;;;;;;26.35;10.63;;;6.80;93.90;;;;;;2067032;28;20377;-80
2021/01/28 03:41:55;;;;;;;24.85;10.38;;;6.80;93.90;;;;;;2074453;28;20499;-80
2021/01/28 03:42:56;;;;;;;24.25;11.70;;;6.80;93.90;;;;;;2065831;28;20049;-80
2021/01/28 03:43:57;;;;;;;24.92;10.82;;;6.80;93.90;;;;;;2074776;28;20541;-80
2021/01/28 03:44:57;;;;;;;25.67;10.90;;;6.90;93.90;;;;;;2088840;28;20044;-80
2021/01/28 03:45:58;;;;;;;33.45;12.20;;;6.80;93.90;;;;;;2089302;28;20532;-80
2021/01/28 03:46:59;;;;;;;33.67;11.85;;;6.80;93.90;;;;;;2074143;28;20125;-80
2021/01/28 03:48:00;;;;;;;36.88;11.80;;;6.80;93.90;;;;;;2082515;28;20025;-80
2021/01/28 03:49:01;;;;;;;26.58;11.25;;;6.80;93.90;;;;;;2082394;28;20025;-81
2021/01/28 03:50:03;;;;;;;27.58;10.90;;;6.80;93.90;;;;;;2081140;28;20398;-80
2021/01/28 03:51:05;;;;;;;28.30;11.63;;;6.80;93.90;;;;;;2065618;28;20030;-80
2021/01/28 03:52:06;;;;;;;30.85;11.48;;;6.80;93.90;;;;;;2066094;28;20113;-80
2021/01/28 03:53:07;;;;;;;27.40;10.20;;;6.80;93.90;;;;;;2081162;28;20022;-81
2021/01/28 03:54:08;;;;;;;24.73;10.88;;;6.80;93.90;;;;;;2082022;28;20107;-80
2021/01/28 03:55:09;;;;;;;25.77;10.15;;;6.80;93.90;;;;;;2081033;28;20033;-80
2021/01/28 03:56:10;;;;;;;21.08;9.20;;;6.80;93.90;;;;;;2074613;28;20036;-80
2021/01/28 03:57:10;;;;;;;24.73;9.45;;;6.80;93.90;;;;;;2066805;28;20044;-81
2021/01/28 03:58:11;;;;;;;25.23;9.25;;;6.70;93.90;;;;;;2074577;28;20515;-81
2021/01/28 03:59:12;;;;;;;25.08;9.23;;;6.70;93.90;;;;;;2082872;28;20471;-80
2021/01/28 04:00:15;;;;;;;19.20;8.32;;;6.70;93.90;;;;;;2074411;28;20052;-80
2021/01/28 04:01:16;;;;;;;22.75;8.52;;;6.70;93.90;;;;;;2073878;28;20404;-81
2021/01/28 04:02:17;;;;;;;21.80;8.52;;;6.60;93.90;;;;;;2074552;28;21183;-80
2021/01/28 04:03:18;;;;;;;22.90;8.02;;;6.60;94.20;;;;;;2075397;28;20776;-80
2021/01/28 04:04:19;;;;;;;20.65;7.63;;;6.60;94.20;;;;;;2072964;28;20026;-80
2021/01/28 04:05:20;;;;;;;22.20;8.15;;;6.60;93.90;;;;;;2058982;28;20527;-80
2021/01/28 04:06:21;;;;;;;19.92;7.15;;;6.60;94.00;;;;;;2075284;28;20067;-81
2021/01/28 04:07:21;;;;;;;22.33;7.45;;;6.60;94.00;;;;;;2082124;28;20037;-80
2021/01/28 04:08:22;;;;;;;18.58;7.53;;;6.60;94.00;;;;;;2065152;28;20145;-81
2021/01/28 04:09:23;;;;;;;21.90;7.95;;;6.60;94.00;;;;;;2058366;28;20416;-80
2021/01/28 04:10:30;;;;;;;19.83;6.50;;;6.60;94.00;;;;;;2066351;28;20053;-80
2021/01/28 04:11:31;;;;;;;19.90;6.95;;;6.60;94.00;;;;;;2074295;28;20021;-81
2021/01/28 04:12:32;;;;;;;16.25;6.75;;;6.60;93.90;;;;;;2073406;28;20831;-80
2021/01/28 04:13:33;;;;;;;19.48;6.35;;;6.50;93.90;;;;;;2080948;28;20029;-80
2021/01/28 04:14:35;;;;;;;18.27;6.85;;;6.60;93.90;;;;;;2074278;28;20037;-80
2021/01/28 04:15:36;;;;;;;17.35;6.05;;;6.60;93.90;;;;;;2067620;28;20037;-80
2021/01/28 04:16:36;;;;;;;15.73;5.65;;;6.50;93.90;;;;;;2074263;28;20087;-80
2021/01/28 04:17:37;;;;;;;20.02;6.25;;;6.50;93.90;;;;;;2088914;28;22005;-81
2021/01/28 04:18:38;;;;;;;13.85;5.78;;;6.50;93.90;;;;;;2081912;28;20063;-81
2021/01/28 04:19:39;;;;;;;17.23;5.85;;;6.50;93.90;;;;;;2065776;28;20073;-80
2021/01/28 04:20:39;;;;;;;17.58;6.22;;;6.50;93.90;;;;;;2058477;28;20030;-80
2021/01/28 04:21:40;;;;;;;16.88;6.63;;;6.50;93.90;;;;;;2067742;28;20458;-80
2021/01/28 04:22:41;;;;;;;15.18;5.95;;;6.50;93.90;;;;;;2065164;28;20445;-80
2021/01/28 04:23:41;;;;;;;13.90;5.90;;;6.50;93.90;;;;;;2066027;28;20049;-80
2021/01/28 04:24:42;;;;;;;15.65;5.50;;;6.50;93.90;;;;;;2080335;28;20515;-80
2021/01/28 04:25:42;;;;;;;15.80;5.95;;;6.50;93.90;;;;;;2081527;28;20144;-80
2021/01/28 04:26:44;;;;;;;13.30;5.63;;;6.50;93.90;;;;;;2089791;28;20782;-82
2021/01/28 04:27:45;;;;;;;16.60;6.07;;;6.50;93.90;;;;;;2082472;28;20479;-80
2021/01/28 04:28:46;;;;;;;16.08;6.10;;;6.50;93.90;;;;;;2074446;28;20037;-80
2021/01/28 04:29:47;;;;;;;13.88;6.13;;;6.50;93.90;;;;;;2074580;28;20252;-80
2021/01/28 04:30:47;;;;;;;17.02;6.28;;;6.50;93.90;;;;;;2066169;28;20046;-80
2021/01/28 04:31:48;;;;;;;17.40;6.22;;;6.40;93.90;;;;;;2060081;28;20128;-80
2021/01/28 04:32:50;;;;;;;15.80;6.13;;;6.50;93.90;;;;;;2068957;28;20404;-80
2021/01/28 04:33:51;;;;;;;17.42;6.13;;;6.40;93.90;;;;;;2075800;28;20029;-80
2021/01/28 04:34:51;;;;;;;18.60;6.85;;;6.40;93.90;;;;;;2075475;28;20535;-80
2021/01/28 04:35:52;;;;;;;14.80;6.18;;;6.40;93.90;;;;;;2068384;28;20084;-80
2021/01/28 04:36:53;;;;;;;15.10;5.60;;;6.40;93.90;;;;;;2061263;28;20116;-82
2021/01/28 04:37:53;;;;;;;16.17;6.40;;;6.40;93.90;;;;;;2085478;28;20135;-82
2021/01/28 04:38:54;;;;;;;12.18;5.47;;;6.40;94.00;;;;;;2090940;28;20567;-82
2021/01/28 04:39:55;;;;;;;17.95;7.00;;;6.40;93.90;;;;;;2074923;28;20052;-82
2021/01/28 04:41:17;;;;;;;16.63;5.72;;;6.40;93.90;;;;;;2067221;28;20506;-80
2021/01/28 04:42:31;;;;;;;12.88;5.40;;;6.40;93.90;;;;;;2083256;28;20028;-80
2021/01/28 04:43:33;;;;;;;14.27;6.22;;;6.40;93.90;;;;;;2087749;28;20044;-80
2021/01/28 04:44:34;;;;;;;18.90;7.28;;;6.40;93.90;;;;;;2075479;28;20037;-81
2021/01/28 04:45:34;;;;;;;17.30;6.70;;;6.40;93.90;;;;;;2076344;28;20030;-80
2021/01/28 04:46:40;;;;;;;15.80;6.53;;;6.40;93.90;;;;;;2083844;28;20036;-83
2021/01/28 04:47:50;;;;;;;17.08;6.45;;;6.40;93.90;;;;;;2082831;28;20029;-80
2021/01/28 04:48:50;;;;;;;14.00;6.13;;;6.40;93.90;;;;;;2090372;28;20568;-82
2021/01/28 04:49:57;;;;;;;20.88;6.90;;;6.40;93.90;;;;;;2090908;28;20059;-82
2021/01/28 04:51:00;;;;;;;16.40;7.63;;;6.40;93.90;;;;;;2090962;28;20029;-82
2021/01/28 04:52:03;;;;;;;17.55;6.63;;;6.40;93.90;;;;;;2090335;28;20046;-82
2021/01/28 04:53:15;;;;;;;22.60;6.80;;;6.40;93.90;;;;;;2075381;28;20387;-82
2021/01/28 04:54:18;;;;;;;25.90;7.90;;;6.40;93.90;;;;;;2075987;28;20036;-81
2021/01/28 04:55:24;;;;;;;20.38;7.82;;;6.40;93.90;;;;;;2075423;28;20423;-82
2021/01/28 04:56:27;;;;;;;23.95;7.43;;;6.40;93.90;;;;;;2076730;28;20028;-82
2021/01/28 04:57:27;;;;;;;24.15;8.32;;;6.40;93.90;;;;;;2069185;28;20018;-82
2021/01/28 04:58:28;;;;;;;33.05;8.77;;;6.40;93.90;;;;;;2068277;28;20432;-82
2021/01/28 04:59:48;;;;;;;21.70;7.85;;;6.30;93.80;;;;;;2075304;28;20160;-82
2021/01/28 05:00:48;;;;;;;19.40;7.22;;;6.40;93.90;;;;;;2081287;28;20110;-82
2021/01/28 05:01:50;;;;;;;20.55;7.30;;;6.30;93.90;;;;;;2075815;28;20026;-82
2021/01/28 05:02:59;;;;;;;39.53;9.65;;;6.30;93.90;;;;;;2085148;28;20387;-82
2021/01/28 05:04:03;;;;;;;25.02;8.70;;;6.30;93.90;;;;;;2082198;28;20025;-83
2021/01/28 05:05:07;;;;;;;33.13;9.60;;;6.30;93.90;;;;;;2075100;28;20381;-82
2021/01/28 05:06:08;;;;;;;31.95;9.18;;;6.30;93.90;;;;;;2075454;28;20030;-83
2021/01/28 05:07:11;;;;;;;28.20;9.75;;;6.30;93.90;;;;;;2076290;28;20752;-82
2021/01/28 05:08:12;;;;;;;31.65;10.20;;;6.30;93.90;;;;;;2075506;28;20021;-82
2021/01/28 05:09:13;;;;;;;30.73;10.02;;;6.20;93.90;;;;;;2067896;28;20065;-82
2021/01/28 05:10:34;;;;;;;21.95;8.30;;;6.20;93.90;;;;;;2066531;28;20132;-82
2021/01/28 05:11:37;;;;;;;19.67;7.75;;;6.20;94.00;;;;;;2074617;28;20087;-83
2021/01/28 05:12:38;;;;;;;19.58;7.38;;;6.20;94.00;;;;;;2067886;28;20046;-81
2021/01/28 05:13:39;;;;;;;21.60;7.13;;;6.20;94.00;;;;;;2066962;28;20519;-82
2021/01/28 05:14:40;;;;;;;22.85;7.80;;;6.20;94.00;;;;;;2076435;28;20037;-82
2021/01/28 05:15:42;;;;;;;18.05;6.65;;;6.20;94.00;;;;;;2076152;28;20038;-82
2021/01/28 05:16:47;;;;;;;22.98;7.57;;;6.20;94.00;;;;;;2076819;28;20026;-82
2021/01/28 05:18:04;;;;;;;24.40;7.50;;;6.20;94.00;;;;;;2081805;28;20063;-82
2021/01/28 05:19:09;;;;;;;24.25;7.03;;;6.20;94.30;;;;;;2075847;28;20025;-82
2021/01/28 05:20:20;;;;;;;27.33;7.97;;;6.10;94.00;;;;;;2075285;28;20029;-82
2021/01/28 05:21:23;;;;;;;19.55;7.90;;;6.10;94.00;;;;;;2075807;28;20079;-82
2021/01/28 05:22:30;;;;;;;21.40;8.15;;;6.10;94.00;;;;;;2075632;28;20110;-82
2021/01/28 05:23:32;;;;;;;22.40;8.25;;;6.10;94.00;;;;;;2083033;28;20107;-82